Terminal Aerodrome Forecast
Issued by NWS Huntsville, AL

Home | Current Version | Previous Version | Text Only | Print | Product List | Glossary On
Versions: 1 2 3 4 5 6 7 8 9 10 11 12 13 14 15 16 17 18 19 20 21 22 23 24 25 26 27 28 29 30 31 32 33 34 35 36
000
FTUS44 KHUN 232320
TAFHSV
TAF
KHSV 232320Z 2400/2424 22011KT P6SM OVC015
     FM240400 25010KT P6SM VCSH BKN025 OVC040
      TEMPO 2404/2407 27015G25KT 4SM -SHRA BR OVC020
     FM240800 32006KT 4SM BR BKN010
     FM241500 33004KT P6SM SCT030 BKN250=

USA.gov is the U.S. government's official web portal to all federal, state and local government web resources and services.